createdAt,value
2023-02-06T00:00:57.329Z,38.87
2023-02-06T00:03:26.488Z,38.27
2023-02-06T00:05:58.008Z,37.87
2023-02-06T00:08:26.033Z,38.13
2023-02-06T00:10:54.145Z,39.80
2023-02-06T00:13:24.987Z,40.40
2023-02-06T00:15:52.704Z,40.73
2023-02-06T00:18:20.514Z,44.53
2023-02-06T00:20:49.685Z,39.07
2023-02-06T00:23:17.656Z,44.00
2023-02-06T00:25:45.536Z,33.37
2023-02-06T00:28:13.572Z,33.93
2023-02-06T00:30:41.557Z,30.83
2023-02-06T00:33:11.808Z,34.57
2023-02-06T00:35:39.613Z,32.47
2023-02-06T00:38:10.179Z,34.37
2023-02-06T00:40:38.009Z,37.20
2023-02-06T00:43:07.913Z,35.93
2023-02-06T00:45:35.939Z,36.73
2023-02-06T00:48:04.147Z,39.10
2023-02-06T00:50:31.955Z,35.83
2023-02-06T00:52:59.722Z,38.07
2023-02-06T00:55:29.616Z,39.90
2023-02-06T00:57:57.449Z,39.07
2023-02-06T01:00:25.164Z,41.97
2023-02-06T01:02:53.086Z,36.43
2023-02-06T01:05:21.576Z,41.93
2023-02-06T01:07:49.420Z,35.17
2023-02-06T01:10:17.666Z,36.60
2023-02-06T01:12:46.864Z,33.17
2023-02-06T01:15:15.485Z,41.13
2023-02-06T01:17:43.698Z,37.53
2023-02-06T01:20:14.721Z,36.63
2023-02-06T01:22:42.803Z,42.47
2023-02-06T01:25:13.096Z,41.10
2023-02-06T01:27:40.942Z,38.60
2023-02-06T01:30:13.659Z,40.13
2023-02-06T01:32:42.674Z,42.10
2023-02-06T01:35:12.488Z,38.07
2023-02-06T01:37:42.003Z,39.23
2023-02-06T01:40:14.504Z,40.63
2023-02-06T01:42:42.420Z,40.77
2023-02-06T01:45:45.787Z,41.00
2023-02-06T01:48:18.392Z,43.10
2023-02-06T01:50:52.433Z,43.27
2023-02-06T01:53:23.463Z,41.63
2023-02-06T01:55:53.384Z,44.37
2023-02-06T01:58:29.046Z,40.17
2023-02-06T02:01:00.442Z,49.30
2023-02-06T02:03:32.937Z,42.23
2023-02-06T02:06:06.499Z,41.80
2023-02-06T02:08:38.693Z,42.83
2023-02-06T02:11:08.383Z,43.57
2023-02-06T02:13:39.282Z,43.97
2023-02-06T02:16:16.577Z,40.97
2023-02-06T02:19:21.948Z,41.30
2023-02-06T02:22:12.384Z,38.87
2023-02-06T02:25:00.649Z,37.93
2023-02-06T02:27:52.916Z,41.40
2023-02-06T02:31:08.001Z,39.90
2023-02-06T02:33:56.378Z,39.10
2023-02-06T02:36:31.482Z,40.77
2023-02-06T02:39:09.954Z,41.27
2023-02-06T02:41:45.803Z,43.10
2023-02-06T02:44:20.875Z,41.03
2023-02-06T02:46:52.313Z,42.73
2023-02-06T02:49:24.773Z,35.93
2023-02-06T02:51:55.597Z,42.13
2023-02-06T02:54:23.395Z,35.47
2023-02-06T02:56:51.271Z,38.43
2023-02-06T02:59:24.179Z,36.80
2023-02-06T03:01:59.009Z,41.17
2023-02-06T03:04:31.600Z,36.03
2023-02-06T03:07:14.576Z,36.20
2023-02-06T03:09:59.336Z,38.57
2023-02-06T03:12:38.905Z,37.90
2023-02-06T03:15:14.602Z,32.83
2023-02-06T03:17:48.480Z,34.17
2023-02-06T03:20:18.090Z,31.83
2023-02-06T03:22:50.891Z,29.33
2023-02-06T03:25:24.914Z,30.83
2023-02-06T03:27:55.666Z,34.60
2023-02-06T03:30:24.219Z,34.43
2023-02-06T03:33:02.362Z,31.70
2023-02-06T03:35:33.647Z,32.57
2023-02-06T03:38:03.530Z,30.73
2023-02-06T03:40:31.940Z,30.90
2023-02-06T03:43:02.722Z,33.60
2023-02-06T03:45:33.982Z,37.13
2023-02-06T03:48:05.225Z,31.67
2023-02-06T03:50:37.651Z,29.67
2023-02-06T03:53:11.362Z,29.83
2023-02-06T03:55:41.543Z,33.87
2023-02-06T03:58:14.474Z,34.30
2023-02-06T04:00:44.906Z,34.53
2023-02-06T04:03:14.817Z,33.97
2023-02-06T04:05:42.749Z,33.53
2023-02-06T04:08:11.981Z,36.53
2023-02-06T04:10:39.785Z,35.13
2023-02-06T04:13:07.661Z,35.87
2023-02-06T04:15:35.755Z,36.87
2023-02-06T04:18:05.173Z,34.77
2023-02-06T04:20:34.349Z,34.63
2023-02-06T04:23:04.369Z,35.17
2023-02-06T04:25:33.551Z,34.27
2023-02-06T04:28:01.485Z,31.30
2023-02-06T04:30:29.402Z,34.27
2023-02-06T04:32:57.261Z,36.40
2023-02-06T04:35:25.008Z,30.67
2023-02-06T04:37:52.767Z,34.97
2023-02-06T04:40:20.674Z,27.40
2023-02-06T04:42:49.819Z,33.43
2023-02-06T04:45:17.713Z,33.63
2023-02-06T04:47:49.366Z,33.90
2023-02-06T04:50:17.526Z,29.70
2023-02-06T04:52:45.483Z,36.73
2023-02-06T04:55:13.318Z,31.23
2023-02-06T04:57:42.405Z,30.30
2023-02-06T05:00:15.161Z,33.23
2023-02-06T05:02:43.207Z,31.30
2023-02-06T05:05:11.195Z,29.37
2023-02-06T05:07:39.106Z,30.13
2023-02-06T05:10:09.997Z,29.90
2023-02-06T05:12:39.876Z,29.30
2023-02-06T05:15:08.990Z,30.07
2023-02-06T05:17:38.172Z,31.03
2023-02-06T05:20:07.068Z,29.87
2023-02-06T05:22:34.824Z,27.70
2023-02-06T05:25:02.603Z,27.10
2023-02-06T05:27:30.568Z,27.80
2023-02-06T05:29:58.358Z,27.87
2023-02-06T05:32:26.164Z,30.07
2023-02-06T05:34:55.244Z,26.27
2023-02-06T05:37:23.158Z,29.33
2023-02-06T05:39:50.866Z,29.90
2023-02-06T05:42:18.675Z,28.03
2023-02-06T05:44:46.431Z,27.47
2023-02-06T05:47:14.255Z,28.13
2023-02-06T05:49:44.866Z,28.83
2023-02-06T05:52:14.038Z,28.97
2023-02-06T05:54:41.870Z,29.50
2023-02-06T05:57:09.765Z,29.50
2023-02-06T05:59:37.583Z,28.20
2023-02-06T06:02:07.760Z,30.00
2023-02-06T06:04:35.587Z,29.37
2023-02-06T06:07:03.350Z,29.07
2023-02-06T06:09:32.442Z,28.93
2023-02-06T06:12:00.140Z,26.57
2023-02-06T06:14:28.222Z,27.20
2023-02-06T06:16:55.988Z,26.03
2023-02-06T06:19:23.862Z,27.43
2023-02-06T06:21:51.599Z,26.73
2023-02-06T06:24:19.542Z,25.63
2023-02-06T06:26:48.710Z,25.70
2023-02-06T06:29:16.496Z,26.03
2023-02-06T06:31:45.542Z,26.43
2023-02-06T06:34:13.296Z,26.20
2023-02-06T06:36:41.070Z,26.50
2023-02-06T06:39:08.993Z,23.77
2023-02-06T06:41:36.756Z,26.33
2023-02-06T06:44:06.141Z,25.33
2023-02-06T06:46:33.905Z,25.57
2023-02-06T06:49:04.063Z,26.40
2023-02-06T06:51:31.794Z,25.67
2023-02-06T06:54:02.161Z,24.80
2023-02-06T06:56:29.942Z,22.90
2023-02-06T06:58:57.758Z,21.90
2023-02-06T07:01:26.926Z,23.93
2023-02-06T07:03:54.723Z,18.57
2023-02-06T07:06:22.482Z,18.90
2023-02-06T07:08:50.221Z,19.13
2023-02-06T07:11:18.536Z,18.20
2023-02-06T07:13:46.973Z,17.37
2023-02-06T07:16:14.786Z,17.73
2023-02-06T07:18:43.973Z,18.50
2023-02-06T07:21:14.175Z,16.93
2023-02-06T07:23:41.911Z,17.63
2023-02-06T07:26:09.816Z,17.63
2023-02-06T07:28:38.031Z,16.80
2023-02-06T07:31:08.009Z,15.63
2023-02-06T07:33:36.522Z,16.30
2023-02-06T07:36:05.986Z,17.90
2023-02-06T07:38:33.704Z,18.63
2023-02-06T07:41:04.408Z,15.83
2023-02-06T07:43:32.629Z,18.23
2023-02-06T07:46:01.697Z,15.67
2023-02-06T07:48:29.848Z,16.43
2023-02-06T07:50:57.620Z,14.70
2023-02-06T07:53:26.737Z,14.03
2023-02-06T07:55:54.570Z,14.63
2023-02-06T07:58:22.658Z,11.63
2023-02-06T08:00:50.538Z,15.50
2023-02-06T08:03:18.320Z,15.13
2023-02-06T08:05:46.055Z,13.87
2023-02-06T08:08:13.822Z,12.27
2023-02-06T08:10:42.924Z,13.53
2023-02-06T08:13:10.661Z,13.20
2023-02-06T08:15:38.633Z,14.50
2023-02-06T08:18:07.352Z,12.53
2023-02-06T08:20:35.102Z,14.60
2023-02-06T08:23:04.121Z,11.70
2023-02-06T08:25:32.006Z,12.63
2023-02-06T08:28:01.138Z,13.73
2023-02-06T08:30:29.190Z,12.47
2023-02-06T08:32:57.181Z,14.30
2023-02-06T08:35:24.982Z,14.67
2023-02-06T08:37:54.889Z,11.97
2023-02-06T08:40:22.609Z,12.77
2023-02-06T08:42:52.110Z,10.90
2023-02-06T08:45:23.627Z,13.10
2023-02-06T08:47:51.572Z,11.90
2023-02-06T08:50:21.629Z,11.97
2023-02-06T08:52:49.361Z,13.77
2023-02-06T08:55:17.470Z,9.63
2023-02-06T08:57:45.204Z,12.40
2023-02-06T09:00:14.517Z,12.17
2023-02-06T09:02:43.707Z,10.23
2023-02-06T09:05:11.537Z,10.87
2023-02-06T09:07:39.331Z,12.70
2023-02-06T09:10:16.177Z,9.43
2023-02-06T09:12:53.543Z,9.60
2023-02-06T09:15:21.316Z,10.87
2023-02-06T09:17:50.488Z,11.33
2023-02-06T09:20:18.698Z,9.97
2023-02-06T09:22:48.544Z,12.30
2023-02-06T09:25:16.382Z,8.83
2023-02-06T09:27:46.725Z,11.37
2023-02-06T09:30:15.611Z,8.17
2023-02-06T09:32:44.041Z,9.50
2023-02-06T09:35:13.230Z,9.23
2023-02-06T09:37:41.077Z,11.60
2023-02-06T09:40:11.836Z,10.67
2023-02-06T09:42:41.907Z,7.43
2023-02-06T09:45:14.835Z,8.60
2023-02-06T09:47:49.108Z,7.93
2023-02-06T09:50:27.806Z,8.67
2023-02-06T09:53:13.916Z,9.53
2023-02-06T09:55:43.701Z,11.23
2023-02-06T09:58:22.719Z,9.93
2023-02-06T10:00:54.658Z,8.93
2023-02-06T10:03:57.278Z,9.80
2023-02-06T10:06:29.690Z,10.40
2023-02-06T10:09:02.664Z,7.73
2023-02-06T10:11:42.886Z,8.43
2023-02-06T10:14:19.155Z,10.13
2023-02-06T10:16:49.948Z,7.40
2023-02-06T10:19:23.586Z,7.97
2023-02-06T10:21:56.967Z,8.50
2023-02-06T10:24:34.361Z,7.77
2023-02-06T10:27:05.911Z,8.27
2023-02-06T10:29:36.315Z,7.77
2023-02-06T10:32:20.376Z,7.27
2023-02-06T10:35:07.094Z,6.97
2023-02-06T10:37:59.076Z,8.00
2023-02-06T10:40:44.493Z,5.80
2023-02-06T10:43:20.793Z,6.83
2023-02-06T10:45:58.278Z,6.10
2023-02-06T10:48:33.001Z,11.03
2023-02-06T10:51:11.118Z,5.50
2023-02-06T10:53:49.665Z,6.30
2023-02-06T10:56:19.936Z,6.63
2023-02-06T10:58:53.297Z,5.20
2023-02-06T11:01:26.410Z,5.23
2023-02-06T11:04:00.932Z,4.93
2023-02-06T11:06:30.847Z,8.60
2023-02-06T11:09:00.082Z,7.37
2023-02-06T11:11:30.667Z,6.27
2023-02-06T11:14:05.417Z,7.10
2023-02-06T11:16:36.143Z,6.27
2023-02-06T11:19:16.389Z,5.33
2023-02-06T11:21:50.860Z,6.63
2023-02-06T11:24:21.649Z,5.93
2023-02-06T11:26:52.552Z,6.57
2023-02-06T11:29:23.415Z,6.30
2023-02-06T11:31:56.836Z,4.63
2023-02-06T11:34:28.694Z,6.53
2023-02-06T11:36:58.140Z,6.03
2023-02-06T11:39:31.360Z,6.43
2023-02-06T11:42:02.621Z,7.87
2023-02-06T11:44:37.356Z,6.57
2023-02-06T11:47:29.709Z,5.00
2023-02-06T11:50:22.092Z,6.67
2023-02-06T11:52:52.395Z,9.07
2023-02-06T11:55:24.559Z,5.83
2023-02-06T11:58:04.242Z,7.30
2023-02-06T12:00:32.728Z,7.73
2023-02-06T12:03:00.521Z,7.43
2023-02-06T12:05:34.442Z,7.17
2023-02-06T12:08:06.305Z,7.53
2023-02-06T12:10:39.787Z,6.57
2023-02-06T12:13:10.489Z,8.20
2023-02-06T12:15:47.260Z,8.70
2023-02-06T12:18:19.684Z,8.40
2023-02-06T12:20:51.884Z,5.90
2023-02-06T12:23:25.597Z,7.00
2023-02-06T12:25:58.268Z,7.03
2023-02-06T12:28:30.792Z,10.80
2023-02-06T12:31:03.560Z,7.90
2023-02-06T12:33:38.513Z,7.33
2023-02-06T12:36:12.290Z,6.43
2023-02-06T12:38:44.798Z,7.20
2023-02-06T12:41:39.835Z,6.00
2023-02-06T12:44:28.030Z,7.87
2023-02-06T12:47:01.371Z,5.00
2023-02-06T12:49:33.028Z,5.53
2023-02-06T12:52:06.098Z,5.73
2023-02-06T12:54:38.658Z,4.07
2023-02-06T12:57:15.679Z,5.90
2023-02-06T13:00:11.792Z,5.10
2023-02-06T13:03:04.483Z,5.23
2023-02-06T13:05:37.087Z,4.47
2023-02-06T13:08:08.846Z,22.20
2023-02-06T13:10:38.372Z,5.27
2023-02-06T13:13:08.225Z,4.27
2023-02-06T13:15:39.259Z,5.47
2023-02-06T13:18:36.161Z,4.80
2023-02-06T13:21:18.465Z,4.23
2023-02-06T13:24:07.661Z,4.53
2023-02-06T13:27:10.246Z,4.73
2023-02-06T13:29:42.942Z,5.47
2023-02-06T13:32:43.135Z,3.03
2023-02-06T13:35:22.409Z,5.37
2023-02-06T13:37:51.638Z,3.80
2023-02-06T13:40:30.310Z,4.57
2023-02-06T13:43:04.066Z,3.33
2023-02-06T13:45:37.250Z,3.10
2023-02-06T13:48:46.899Z,3.10
2023-02-06T13:51:38.530Z,3.63
2023-02-06T13:54:41.639Z,4.73
2023-02-06T13:57:39.180Z,2.30
2023-02-06T14:00:15.738Z,3.00
2023-02-06T14:02:48.499Z,3.10
2023-02-06T14:05:19.897Z,2.93
2023-02-06T14:08:02.958Z,8.30
2023-02-06T14:11:01.329Z,2.93
2023-02-06T14:13:40.427Z,5.17
2023-02-06T14:16:29.962Z,3.40
2023-02-06T14:19:02.486Z,4.27
2023-02-06T14:21:40.292Z,4.67
2023-02-06T14:24:27.610Z,4.17
2023-02-06T14:27:14.657Z,4.33
2023-02-06T14:29:50.488Z,3.77
2023-02-06T14:32:33.640Z,3.07
2023-02-06T14:35:14.203Z,3.20
2023-02-06T14:38:00.768Z,3.37
2023-02-06T14:40:33.449Z,4.07
2023-02-06T14:43:05.666Z,3.03
2023-02-06T14:45:41.765Z,4.07
2023-02-06T14:48:20.844Z,4.07
2023-02-06T14:50:55.525Z,3.77
2023-02-06T14:53:28.157Z,5.10
2023-02-06T14:56:07.585Z,2.90
2023-02-06T14:58:36.309Z,2.83
2023-02-06T15:01:21.966Z,4.20
2023-02-06T15:03:52.468Z,2.93
2023-02-06T15:06:33.335Z,3.77
2023-02-06T15:09:01.836Z,4.63
2023-02-06T15:11:32.700Z,5.57
2023-02-06T15:14:02.986Z,3.03
2023-02-06T15:16:33.036Z,4.03
2023-02-06T15:19:12.277Z,3.87
2023-02-06T15:21:44.112Z,3.87
2023-02-06T15:24:26.799Z,4.70
2023-02-06T15:27:01.779Z,3.60
2023-02-06T15:29:29.585Z,4.77
2023-02-06T15:32:04.377Z,3.80
2023-02-06T15:34:32.718Z,4.17
2023-02-06T15:37:01.903Z,3.70
2023-02-06T15:39:29.870Z,3.20
2023-02-06T15:41:57.922Z,3.43
2023-02-06T15:44:29.234Z,5.33
2023-02-06T15:46:58.087Z,4.40
2023-02-06T15:49:37.874Z,5.03
2023-02-06T15:52:07.236Z,4.77
2023-02-06T15:54:40.182Z,4.43
2023-02-06T15:57:18.701Z,4.07
2023-02-06T15:59:46.780Z,5.13
2023-02-06T16:02:23.595Z,5.67
2023-02-06T16:04:55.034Z,6.20
2023-02-06T16:07:27.480Z,3.60
2023-02-06T16:09:57.994Z,4.53
2023-02-06T16:12:27.532Z,5.83
2023-02-06T16:14:57.542Z,4.37
2023-02-06T16:17:31.294Z,5.93
2023-02-06T16:20:02.254Z,4.30
2023-02-06T16:22:33.442Z,2.60
2023-02-06T16:25:21.773Z,3.53
2023-02-06T16:27:51.219Z,2.60
2023-02-06T16:30:26.519Z,3.30
2023-02-06T16:32:55.566Z,5.10
2023-02-06T16:35:24.274Z,5.13
2023-02-06T16:37:55.248Z,3.23
2023-02-06T16:40:23.162Z,4.07
2023-02-06T16:42:52.519Z,4.03
2023-02-06T16:45:24.522Z,5.00
2023-02-06T16:47:52.933Z,5.57
2023-02-06T16:50:23.650Z,7.27
2023-02-06T16:52:57.949Z,7.40
2023-02-06T16:55:28.823Z,4.53
2023-02-06T16:58:02.195Z,4.30
2023-02-06T17:00:31.826Z,5.83
2023-02-06T17:02:59.879Z,3.33
2023-02-06T17:05:29.354Z,5.83
2023-02-06T17:07:58.594Z,4.30
2023-02-06T17:10:28.116Z,5.63
2023-02-06T17:12:58.315Z,3.63
2023-02-06T17:15:26.471Z,4.63
2023-02-06T17:17:54.907Z,9.50
2023-02-06T17:20:30.698Z,7.17
2023-02-06T17:22:59.905Z,14.93
2023-02-06T17:25:28.282Z,7.07
2023-02-06T17:27:57.168Z,5.87
2023-02-06T17:30:26.976Z,4.63
2023-02-06T17:32:54.830Z,2.60
2023-02-06T17:35:22.667Z,3.67
2023-02-06T17:37:51.582Z,5.00
2023-02-06T17:40:23.282Z,3.63
2023-02-06T17:42:51.462Z,7.07
2023-02-06T17:45:19.342Z,3.87
2023-02-06T17:47:47.746Z,4.33
2023-02-06T17:50:19.459Z,3.53
2023-02-06T17:52:47.581Z,4.10
2023-02-06T17:55:17.741Z,4.90
2023-02-06T17:57:46.844Z,3.57
2023-02-06T18:00:20.534Z,4.80
2023-02-06T18:02:48.582Z,4.57
2023-02-06T18:05:18.864Z,5.17
2023-02-06T18:07:49.482Z,3.53
2023-02-06T18:10:17.828Z,4.97
2023-02-06T18:12:47.550Z,5.00
2023-02-06T18:15:16.194Z,4.93
2023-02-06T18:17:46.381Z,5.83
2023-02-06T18:20:15.028Z,4.80
2023-02-06T18:22:43.067Z,5.57
2023-02-06T18:25:12.873Z,4.33
2023-02-06T18:27:45.442Z,4.13
2023-02-06T18:30:17.168Z,5.63
2023-02-06T18:32:44.986Z,5.50
2023-02-06T18:35:14.796Z,3.80
2023-02-06T18:37:45.167Z,3.73
2023-02-06T18:40:13.498Z,4.83
2023-02-06T18:42:53.802Z,4.60
2023-02-06T18:45:31.198Z,3.63
2023-02-06T18:47:59.080Z,5.43
2023-02-06T18:50:27.014Z,5.30
2023-02-06T18:52:54.913Z,6.63
2023-02-06T18:55:23.246Z,5.73
2023-02-06T18:57:51.095Z,5.53
2023-02-06T19:00:20.920Z,4.17
2023-02-06T19:02:50.253Z,5.43
2023-02-06T19:05:18.797Z,4.70
2023-02-06T19:07:50.502Z,6.33
2023-02-06T19:10:18.422Z,7.17
2023-02-06T19:12:47.028Z,5.50
2023-02-06T19:15:16.370Z,4.53
2023-02-06T19:17:44.161Z,5.77
2023-02-06T19:20:13.951Z,5.30
2023-02-06T19:22:41.839Z,5.53
2023-02-06T19:25:14.225Z,6.43
2023-02-06T19:27:42.523Z,5.07
2023-02-06T19:30:11.245Z,6.67
2023-02-06T19:32:39.270Z,6.37
2023-02-06T19:35:07.886Z,6.77
2023-02-06T19:37:37.128Z,4.90
2023-02-06T19:40:05.584Z,7.43
2023-02-06T19:42:33.423Z,5.37
2023-02-06T19:45:01.305Z,4.33
2023-02-06T19:47:29.148Z,4.83
2023-02-06T19:49:56.997Z,5.63
2023-02-06T19:52:24.769Z,6.60
2023-02-06T19:54:54.143Z,5.20
2023-02-06T19:57:21.971Z,5.73
2023-02-06T19:59:49.868Z,5.40
2023-02-06T20:02:17.686Z,6.03
2023-02-06T20:04:46.310Z,8.23
2023-02-06T20:07:14.432Z,4.67
2023-02-06T20:09:42.741Z,5.23
2023-02-06T20:12:13.063Z,6.37
2023-02-06T20:14:41.281Z,6.10
2023-02-06T20:17:09.069Z,6.47
2023-02-06T20:19:36.887Z,6.60
2023-02-06T20:22:07.099Z,7.07
2023-02-06T20:24:34.968Z,6.40
2023-02-06T20:27:07.165Z,7.23
2023-02-06T20:29:38.848Z,6.83
2023-02-06T20:32:19.367Z,7.67
2023-02-06T20:34:47.403Z,6.93
2023-02-06T20:37:17.562Z,6.83
2023-02-06T20:39:45.414Z,9.07
2023-02-06T20:42:13.209Z,7.50
2023-02-06T20:44:42.440Z,6.77
2023-02-06T20:47:10.264Z,6.90
2023-02-06T20:49:38.159Z,8.67
2023-02-06T20:52:06.368Z,6.47
2023-02-06T20:54:34.283Z,8.63
2023-02-06T20:57:02.126Z,8.87
2023-02-06T20:59:30.545Z,6.90
2023-02-06T21:01:59.706Z,6.17
2023-02-06T21:04:27.925Z,7.10
2023-02-06T21:06:56.315Z,7.40
2023-02-06T21:09:24.132Z,7.23
2023-02-06T21:11:51.920Z,5.60
2023-02-06T21:14:20.648Z,7.17
2023-02-06T21:16:49.438Z,8.10
2023-02-06T21:19:20.922Z,6.83
2023-02-06T21:21:49.346Z,7.53
2023-02-06T21:24:19.505Z,5.93
2023-02-06T21:26:47.350Z,6.93
2023-02-06T21:29:15.974Z,6.73
2023-02-06T21:31:44.701Z,7.27
2023-02-06T21:34:21.293Z,6.90
2023-02-06T21:36:49.917Z,7.23
2023-02-06T21:39:20.245Z,5.97
2023-02-06T21:41:51.545Z,6.90
2023-02-06T21:44:19.401Z,6.13
2023-02-06T21:46:47.254Z,6.03
2023-02-06T21:49:15.126Z,7.77
2023-02-06T21:51:44.310Z,7.50
2023-02-06T21:54:14.480Z,6.60
2023-02-06T21:56:42.260Z,6.83
2023-02-06T21:59:11.990Z,5.73
2023-02-06T22:01:41.033Z,6.87
2023-02-06T22:04:10.337Z,7.30
2023-02-06T22:06:38.502Z,4.77
2023-02-06T22:09:15.208Z,6.50
2023-02-06T22:11:43.871Z,6.43
2023-02-06T22:14:13.273Z,6.43
2023-02-06T22:16:41.766Z,6.27
2023-02-06T22:19:11.120Z,5.80
2023-02-06T22:21:39.113Z,6.73
2023-02-06T22:24:08.925Z,6.50
2023-02-06T22:26:39.388Z,6.13
2023-02-06T22:29:08.272Z,5.97
2023-02-06T22:31:38.574Z,6.60
2023-02-06T22:34:06.477Z,6.37
2023-02-06T22:36:34.698Z,6.60
2023-02-06T22:39:06.372Z,7.87
2023-02-06T22:41:34.682Z,7.63
2023-02-06T22:44:03.961Z,7.30
2023-02-06T22:46:33.647Z,7.10
2023-02-06T22:49:02.195Z,8.07
2023-02-06T22:51:29.962Z,7.03
2023-02-06T22:53:57.757Z,8.23
2023-02-06T22:56:31.367Z,7.20
2023-02-06T22:59:01.421Z,6.67
2023-02-06T23:01:33.339Z,9.43
2023-02-06T23:04:02.683Z,8.90
2023-02-06T23:06:34.337Z,7.47
2023-02-06T23:09:04.606Z,6.90
2023-02-06T23:11:32.988Z,8.27
2023-02-06T23:14:03.731Z,7.87
2023-02-06T23:16:34.580Z,7.90
2023-02-06T23:19:04.466Z,8.70
2023-02-06T23:21:33.544Z,6.80
2023-02-06T23:24:01.699Z,6.97
2023-02-06T23:26:30.205Z,7.70
2023-02-06T23:28:59.006Z,7.97
2023-02-06T23:31:30.313Z,8.60
2023-02-06T23:33:59.626Z,7.57
2023-02-06T23:36:30.584Z,8.60
2023-02-06T23:38:58.486Z,7.60
2023-02-06T23:41:28.589Z,8.03
2023-02-06T23:43:58.656Z,7.57
2023-02-06T23:46:28.139Z,7.78
2023-02-06T23:48:56.364Z,6.63
2023-02-06T23:51:26.086Z,6.23
2023-02-06T23:53:53.940Z,7.10
2023-02-06T23:56:23.568Z,8.47
2023-02-06T23:58:51.875Z,7.03
